Time;durP1;ratioP1;P1;durP2;ratioP2;P2;SDS_P1;SDS_P2;PMS_P1;PMS_P2;Temp;Humidity;BMP_temperature;BMP_pressure;BME280_temperature;BME280_humidity;BME280_pressure;Samples;Min_cycle;Max_cycle;Signal;HPM_P1;HPM_P2
2023/03/12 00:00:50;;;;;;;10.80;9.60;;;5.80;99.40;;;;;;4920954;29;20917;-83
2023/03/12 00:03:16;;;;;;;10.20;9.30;;;5.80;99.80;;;;;;4916622;29;20488;-86
2023/03/12 00:05:43;;;;;;;10.40;9.30;;;5.80;99.90;;;;;;4918452;29;20600;-84
2023/03/12 00:08:09;;;;;;;11.10;9.30;;;5.90;99.90;;;;;;4919260;29;20381;-84
2023/03/12 00:10:37;;;;;;;11.32;9.68;;;5.80;99.90;;;;;;4917486;29;20550;-84
2023/03/12 00:13:02;;;;;;;9.55;8.65;;;5.80;99.90;;;;;;4916878;29;20187;-84
2023/03/12 00:15:28;;;;;;;10.70;9.70;;;5.80;99.90;;;;;;4917629;29;20182;-85
2023/03/12 00:17:54;;;;;;;10.27;9.27;;;5.80;99.90;;;;;;4918888;29;20658;-85
2023/03/12 00:20:22;;;;;;;10.90;9.70;;;5.70;99.90;;;;;;4920431;29;20186;-85
2023/03/12 00:22:48;;;;;;;10.57;9.13;;;5.70;99.90;;;;;;4925482;29;20186;-84
2023/03/12 00:25:15;;;;;;;9.80;8.80;;;5.70;99.60;;;;;;4921933;29;20280;-84
2023/03/12 00:27:41;;;;;;;9.93;8.93;;;5.80;99.90;;;;;;4921283;29;21112;-85
2023/03/12 00:30:09;;;;;;;10.32;9.27;;;5.80;99.90;;;;;;4931072;29;20214;-84
2023/03/12 00:32:36;;;;;;;10.00;9.00;;;5.80;99.90;;;;;;4937995;29;20218;-84
2023/03/12 00:35:02;;;;;;;10.27;9.15;;;5.80;99.90;;;;;;4938280;29;20212;-83
2023/03/12 00:37:27;;;;;;;9.80;8.85;;;5.80;99.80;;;;;;4935124;29;20294;-87
2023/03/12 00:39:53;;;;;;;8.43;7.73;;;5.80;99.90;;;;;;4936772;29;20194;-84
2023/03/12 00:42:19;;;;;;;9.85;8.95;;;5.70;99.90;;;;;;4935197;29;20455;-86
2023/03/12 00:44:45;;;;;;;9.77;8.80;;;5.80;99.90;;;;;;4933436;29;20722;-84
2023/03/12 00:47:11;;;;;;;9.83;8.93;;;5.70;99.90;;;;;;4919675;29;20273;-83
2023/03/12 00:49:37;;;;;;;9.13;7.80;;;5.70;99.70;;;;;;4916980;29;20519;-83
2023/03/12 00:52:03;;;;;;;8.37;7.67;;;5.70;99.60;;;;;;4917886;29;20176;-84
2023/03/12 00:54:29;;;;;;;14.10;8.03;;;5.80;99.20;;;;;;4918086;29;20415;-85
2023/03/12 00:56:55;;;;;;;10.10;9.10;;;5.80;99.30;;;;;;4918070;29;20478;-84
2023/03/12 00:59:21;;;;;;;11.07;8.23;;;5.80;99.70;;;;;;4917599;29;20584;-87
2023/03/12 01:01:47;;;;;;;9.53;8.63;;;5.70;99.70;;;;;;4918823;29;20190;-85
2023/03/12 01:04:13;;;;;;;11.00;9.00;;;5.70;99.90;;;;;;4918263;29;20188;-85
2023/03/12 01:06:39;;;;;;;9.57;8.67;;;5.70;99.90;;;;;;4916094;29;20442;-85
2023/03/12 01:09:06;;;;;;;10.73;8.90;;;5.80;99.90;;;;;;4918467;29;20735;-85
2023/03/12 01:11:33;;;;;;;9.85;8.88;;;5.80;99.90;;;;;;4916933;29;20474;-84
2023/03/12 01:14:00;;;;;;;10.00;8.40;;;5.80;99.90;;;;;;4917620;29;20265;-84
2023/03/12 01:16:29;;;;;;;13.77;12.30;;;5.80;99.90;;;;;;4916920;29;20230;-86
2023/03/12 01:19:00;;;;;;;11.55;8.75;;;5.80;99.90;;;;;;4918195;29;20494;-84
2023/03/12 01:21:27;;;;;;;13.07;9.07;;;5.90;99.90;;;;;;4917507;29;20202;-84
2023/03/12 01:23:54;;;;;;;10.07;8.70;;;5.90;99.90;;;;;;4917662;29;20558;-84
2023/03/12 01:26:20;;;;;;;10.00;9.10;;;5.80;99.90;;;;;;4916623;29;20194;-84
2023/03/12 01:28:45;;;;;;;9.90;8.90;;;5.80;99.50;;;;;;4916978;29;20932;-84
2023/03/12 01:31:14;;;;;;;9.37;8.57;;;5.90;99.90;;;;;;4917256;29;20194;-84
2023/03/12 01:33:40;;;;;;;9.18;8.38;;;5.90;99.90;;;;;;4915512;29;20203;-84
2023/03/12 01:36:24;;;;;;;9.65;8.65;;;5.90;99.90;;;;;;4917276;29;20221;-84
2023/03/12 01:38:55;;;;;;;9.65;8.85;;;5.90;99.90;;;;;;4917819;29;20194;-84
2023/03/12 01:41:23;;;;;;;9.70;8.80;;;5.90;99.90;;;;;;4917389;29;20194;-84
2023/03/12 01:43:49;;;;;;;9.25;8.35;;;5.90;99.90;;;;;;4916274;29;20474;-85
2023/03/12 01:46:38;;;;;;;10.07;9.00;;;5.90;99.50;;;;;;4917178;29;20517;-84
2023/03/12 01:49:17;;;;;;;10.18;8.55;;;5.90;99.60;;;;;;4916088;29;20222;-85
2023/03/12 01:51:58;;;;;;;9.50;8.50;;;5.90;99.40;;;;;;4916043;29;20194;-85
2023/03/12 01:54:26;;;;;;;11.93;9.27;;;5.90;99.60;;;;;;4915750;29;20198;-88
2023/03/12 01:56:54;;;;;;;8.85;8.05;;;5.90;99.40;;;;;;4917543;29;20215;-83
2023/03/12 01:59:42;;;;;;;10.63;9.57;;;5.90;99.90;;;;;;4915379;29;20558;-84
2023/03/12 02:02:09;;;;;;;10.85;9.75;;;5.90;99.90;;;;;;4930467;29;20194;-83
2023/03/12 02:04:37;;;;;;;9.80;8.82;;;5.90;99.90;;;;;;4914132;29;20205;-85
2023/03/12 02:07:07;;;;;;;9.68;8.82;;;5.90;99.90;;;;;;4916861;29;20234;-84
2023/03/12 02:09:35;;;;;;;8.20;7.47;;;6.00;99.30;;;;;;4914706;29;20274;-84
2023/03/12 02:12:00;;;;;;;7.15;6.45;;;6.00;99.00;;;;;;4916105;29;20187;-84
2023/03/12 02:14:26;;;;;;;6.80;6.20;;;6.00;97.70;;;;;;4916235;29;20247;-87
2023/03/12 02:16:54;;;;;;;6.37;5.10;;;6.10;96.00;;;;;;4915893;29;20246;-84
2023/03/12 02:19:45;;;;;;;5.10;4.60;;;6.20;94.80;;;;;;4916230;29;20435;-84
2023/03/12 02:22:12;;;;;;;4.43;4.10;;;6.10;93.90;;;;;;4915073;29;20211;-85
2023/03/12 02:24:52;;;;;;;4.22;3.67;;;6.10;91.20;;;;;;4913758;29;20643;-86
2023/03/12 02:27:20;;;;;;;4.75;4.45;;;6.00;90.20;;;;;;4914912;29;20189;-84
2023/03/12 02:29:46;;;;;;;6.30;4.82;;;6.10;92.40;;;;;;4913092;29;20179;-85
2023/03/12 02:32:23;;;;;;;4.40;4.00;;;6.10;94.40;;;;;;4916032;29;20189;-85
2023/03/12 02:34:49;;;;;;;4.82;4.38;;;6.10;94.90;;;;;;4895496;29;20540;-84
2023/03/12 02:37:16;;;;;;;5.03;4.65;;;6.10;93.50;;;;;;4908794;29;20266;-84
2023/03/12 02:39:45;;;;;;;5.18;4.68;;;6.10;94.60;;;;;;4913027;29;20513;-84
2023/03/12 02:42:12;;;;;;;5.15;4.65;;;6.20;94.30;;;;;;4915925;29;20648;-84
2023/03/12 02:44:37;;;;;;;5.25;4.75;;;6.20;94.20;;;;;;4914149;29;20236;-85
2023/03/12 02:47:04;;;;;;;4.53;4.23;;;6.20;93.30;;;;;;4914240;29;20189;-84
2023/03/12 02:49:32;;;;;;;4.65;4.20;;;6.20;93.40;;;;;;4915593;29;20670;-86
2023/03/12 02:51:58;;;;;;;5.18;4.70;;;6.30;92.20;;;;;;4915264;29;20246;-84
2023/03/12 02:54:24;;;;;;;4.30;4.00;;;6.30;91.50;;;;;;4915913;29;20286;-85
2023/03/12 02:56:50;;;;;;;4.28;4.00;;;6.30;91.90;;;;;;4915509;29;20218;-84
2023/03/12 02:59:19;;;;;;;4.60;4.15;;;6.30;92.50;;;;;;4915328;29;20213;-85
2023/03/12 03:01:45;;;;;;;4.30;3.90;;;6.40;93.80;;;;;;4915644;29;20537;-85
2023/03/12 03:04:12;;;;;;;4.67;4.27;;;6.40;94.60;;;;;;4916953;29;20188;-84
2023/03/12 03:06:41;;;;;;;4.70;4.30;;;6.40;94.30;;;;;;4915799;29;20192;-85
2023/03/12 03:09:06;;;;;;;4.85;4.15;;;6.40;94.50;;;;;;4915721;29;20183;-85
2023/03/12 03:11:32;;;;;;;8.57;5.57;;;6.50;95.40;;;;;;4915342;29;20190;-85
2023/03/12 03:13:58;;;;;;;4.40;4.00;;;6.40;94.70;;;;;;4919937;29;20439;-85
2023/03/12 03:16:24;;;;;;;6.40;4.60;;;6.40;94.40;;;;;;4919175;29;20227;-85
2023/03/12 03:18:50;;;;;;;4.47;4.07;;;6.40;94.80;;;;;;4917582;29;20826;-85
2023/03/12 03:21:17;;;;;;;4.53;4.13;;;6.40;94.60;;;;;;4919544;29;20438;-85
2023/03/12 03:23:47;;;;;;;4.97;4.43;;;6.40;94.80;;;;;;4920349;29;20450;-84
2023/03/12 03:26:15;;;;;;;4.60;4.20;;;6.40;93.00;;;;;;4920252;29;20185;-83
2023/03/12 03:28:40;;;;;;;4.70;4.10;;;6.40;92.80;;;;;;4918094;29;20509;-85
2023/03/12 03:31:06;;;;;;;6.10;4.40;;;6.40;93.80;;;;;;4919520;29;20283;-84
2023/03/12 03:33:34;;;;;;;4.90;4.50;;;6.40;93.70;;;;;;4923081;29;20228;-86
2023/03/12 03:36:00;;;;;;;4.07;3.87;;;6.40;93.40;;;;;;4954980;29;20415;-84
2023/03/12 03:38:28;;;;;;;7.60;4.72;;;6.40;93.90;;;;;;4960550;29;20395;-84
2023/03/12 03:40:54;;;;;;;5.25;4.00;;;6.50;94.00;;;;;;4957436;29;20384;-84
2023/03/12 03:43:21;;;;;;;4.07;3.77;;;6.40;94.10;;;;;;4958005;29;20306;-84
2023/03/12 03:45:47;;;;;;;4.47;4.17;;;6.40;94.00;;;;;;4941139;29;20463;-83
2023/03/12 03:48:13;;;;;;;4.40;3.67;;;6.30;93.80;;;;;;4936623;29;20435;-83
2023/03/12 03:50:40;;;;;;;4.77;4.37;;;6.30;93.70;;;;;;4936076;29;20416;-84
2023/03/12 03:53:08;;;;;;;4.07;3.63;;;6.30;94.10;;;;;;4921520;29;20423;-84
2023/03/12 03:55:38;;;;;;;5.70;4.60;;;6.30;94.20;;;;;;4918955;29;20412;-86
2023/03/12 03:58:04;;;;;;;4.13;3.87;;;6.20;94.20;;;;;;4919514;29;20471;-84
2023/03/12 04:00:30;;;;;;;6.20;3.80;;;6.20;93.70;;;;;;4916446;29;20451;-86
2023/03/12 04:02:55;;;;;;;5.37;3.43;;;6.20;92.30;;;;;;4915724;29;20538;-84
2023/03/12 04:05:21;;;;;;;3.70;3.50;;;6.20;91.40;;;;;;4919525;29;20435;-84
2023/03/12 04:07:47;;;;;;;3.63;3.33;;;6.20;91.30;;;;;;4918719;29;20593;-84
2023/03/12 04:10:13;;;;;;;3.77;3.47;;;6.40;90.60;;;;;;4919059;29;20441;-84
2023/03/12 04:12:39;;;;;;;3.97;3.57;;;6.40;90.00;;;;;;4918557;29;20225;-84
2023/03/12 04:15:05;;;;;;;3.93;3.63;;;6.40;90.80;;;;;;4918460;29;20436;-84
2023/03/12 04:17:31;;;;;;;4.30;4.00;;;6.40;90.00;;;;;;4918744;29;20240;-87
2023/03/12 04:19:56;;;;;;;4.70;3.70;;;6.40;89.00;;;;;;4916975;29;20473;-85
2023/03/12 04:22:22;;;;;;;3.90;3.60;;;6.50;88.80;;;;;;4918787;29;20180;-84
2023/03/12 04:24:48;;;;;;;6.00;4.00;;;6.50;89.60;;;;;;4916469;29;20438;-84
2023/03/12 04:27:14;;;;;;;4.57;4.07;;;6.60;89.60;;;;;;4917193;29;20281;-83
2023/03/12 04:29:40;;;;;;;4.10;3.80;;;6.60;90.10;;;;;;4918032;29;20425;-85
2023/03/12 04:32:07;;;;;;;3.93;3.50;;;6.60;89.90;;;;;;4919362;29;20176;-85
2023/03/12 04:34:33;;;;;;;3.40;3.20;;;6.50;88.20;;;;;;4918471;29;20452;-87
2023/03/12 04:37:01;;;;;;;4.47;3.40;;;6.50;87.30;;;;;;4917811;29;20472;-84
2023/03/12 04:39:27;;;;;;;4.90;3.43;;;6.60;86.00;;;;;;4917750;29;20525;-84
2023/03/12 04:41:52;;;;;;;4.00;3.70;;;6.70;85.50;;;;;;4918564;29;20429;-84
2023/03/12 04:44:18;;;;;;;3.43;3.23;;;6.60;84.60;;;;;;4917955;29;20359;-84
2023/03/12 04:46:44;;;;;;;4.30;4.00;;;6.50;83.40;;;;;;4918497;29;20275;-84
2023/03/12 04:49:10;;;;;;;3.83;3.07;;;6.60;84.60;;;;;;4919484;29;21006;-84
2023/03/12 04:51:35;;;;;;;3.93;3.00;;;6.40;83.00;;;;;;4918361;29;20195;-86
2023/03/12 04:54:01;;;;;;;4.00;3.30;;;6.40;83.60;;;;;;4918679;29;20537;-84
2023/03/12 04:56:27;;;;;;;4.30;3.40;;;6.30;83.80;;;;;;4918789;29;20205;-84
2023/03/12 04:58:53;;;;;;;6.57;3.50;;;6.10;84.80;;;;;;4916259;29;20320;-84
2023/03/12 05:01:30;;;;;;;3.50;3.20;;;6.00;85.50;;;;;;4916643;29;20250;-84
2023/03/12 05:03:55;;;;;;;4.00;3.65;;;6.10;86.30;;;;;;4915645;29;20271;-84
2023/03/12 05:06:23;;;;;;;4.07;3.77;;;6.10;85.50;;;;;;4918032;29;20660;-84
2023/03/12 05:08:49;;;;;;;3.60;3.40;;;6.20;84.40;;;;;;4918803;29;20579;-85
2023/03/12 05:11:15;;;;;;;6.97;3.00;;;6.20;85.00;;;;;;4919949;29;20183;-84
2023/03/12 05:13:41;;;;;;;3.22;2.97;;;6.30;85.40;;;;;;4917582;29;20624;-85
2023/03/12 05:16:08;;;;;;;3.53;3.20;;;6.30;84.40;;;;;;4919026;29;20313;-83
2023/03/12 05:18:34;;;;;;;3.60;3.40;;;6.20;84.50;;;;;;4919506;29;20458;-83
2023/03/12 05:21:01;;;;;;;3.47;3.22;;;6.20;84.10;;;;;;4936073;29;20429;-83
2023/03/12 05:23:27;;;;;;;4.82;2.90;;;6.30;84.20;;;;;;4919097;29;20191;-86
2023/03/12 05:25:53;;;;;;;3.83;3.40;;;6.20;83.80;;;;;;4916508;29;20184;-84
2023/03/12 05:28:19;;;;;;;4.70;2.90;;;5.90;83.70;;;;;;4916043;29;20450;-83
2023/03/12 05:30:45;;;;;;;4.67;3.40;;;5.80;84.90;;;;;;4916024;29;20262;-86
2023/03/12 05:33:11;;;;;;;5.40;3.83;;;5.70;85.10;;;;;;4899800;29;20439;-84
2023/03/12 05:35:37;;;;;;;6.40;5.35;;;5.90;86.10;;;;;;4915981;29;20648;-87
2023/03/12 05:38:03;;;;;;;3.90;3.50;;;5.90;85.90;;;;;;4915696;29;20249;-83
2023/03/12 05:40:29;;;;;;;5.90;4.00;;;5.90;85.70;;;;;;4916052;29;20617;-84
2023/03/12 05:42:55;;;;;;;3.22;3.03;;;5.90;86.50;;;;;;4914976;29;20241;-83
2023/03/12 05:45:20;;;;;;;3.93;3.47;;;5.90;85.60;;;;;;4916558;29;20186;-83
2023/03/12 05:47:46;;;;;;;4.27;3.90;;;5.80;85.60;;;;;;4916327;29;20183;-84
2023/03/12 05:50:12;;;;;;;3.83;3.53;;;5.80;86.40;;;;;;4913730;29;20194;-85
2023/03/12 05:52:38;;;;;;;5.63;4.10;;;6.00;85.60;;;;;;4912892;29;20182;-88
2023/03/12 05:55:04;;;;;;;4.53;3.47;;;5.90;85.80;;;;;;4916062;29;20870;-81
2023/03/12 05:57:30;;;;;;;4.53;3.90;;;5.90;85.40;;;;;;4916966;29;20297;-82
2023/03/12 05:59:55;;;;;;;3.80;3.50;;;6.00;85.70;;;;;;4915446;29;20649;-83
2023/03/12 06:02:21;;;;;;;3.80;3.50;;;6.10;86.00;;;;;;4916545;29;20179;-83
2023/03/12 06:04:47;;;;;;;5.07;4.37;;;6.00;85.10;;;;;;4930868;29;20639;-84
2023/03/12 06:07:12;;;;;;;4.27;3.70;;;6.10;86.10;;;;;;4915610;29;20245;-83
2023/03/12 06:09:38;;;;;;;4.20;3.90;;;6.20;85.30;;;;;;4916324;29;20174;-88
2023/03/12 06:12:04;;;;;;;5.70;3.80;;;6.30;85.30;;;;;;4914137;29;20640;-84
2023/03/12 06:14:30;;;;;;;3.53;2.63;;;6.50;85.40;;;;;;4916365;29;20207;-83
2023/03/12 06:16:55;;;;;;;3.67;3.20;;;6.60;85.50;;;;;;4915676;29;20470;-84
2023/03/12 06:19:21;;;;;;;4.70;4.27;;;6.70;85.30;;;;;;4916763;29;20191;-84
2023/03/12 06:21:47;;;;;;;4.70;3.93;;;6.70;84.10;;;;;;4917141;29;20199;-84
2023/03/12 06:24:12;;;;;;;5.37;3.40;;;6.70;84.00;;;;;;4916390;29;20204;-84
2023/03/12 06:26:39;;;;;;;5.97;3.20;;;6.90;84.30;;;;;;4915601;29;20322;-88
2023/03/12 06:29:05;;;;;;;3.57;3.30;;;6.80;84.80;;;;;;4915803;29;20208;-83
2023/03/12 06:31:31;;;;;;;3.37;3.07;;;6.80;84.50;;;;;;4916639;29;20449;-83
2023/03/12 06:33:56;;;;;;;3.30;3.10;;;6.70;85.40;;;;;;4914365;29;20424;-83
2023/03/12 06:36:22;;;;;;;3.87;3.40;;;6.70;86.70;;;;;;4916241;29;20515;-82
2023/03/12 06:38:48;;;;;;;4.07;3.78;;;6.40;89.10;;;;;;4913426;29;20190;-83
2023/03/12 06:41:17;;;;;;;6.00;4.30;;;6.10;90.30;;;;;;4916425;29;20683;-83
2023/03/12 06:43:44;;;;;;;5.68;3.95;;;6.30;90.70;;;;;;4915206;29;20494;-86
2023/03/12 06:46:12;;;;;;;6.00;4.40;;;6.20;91.10;;;;;;4914965;29;20294;-84
2023/03/12 06:48:40;;;;;;;4.50;4.10;;;6.00;92.20;;;;;;4915305;29;20719;-84
2023/03/12 06:51:10;;;;;;;3.63;3.33;;;6.10;92.90;;;;;;4914283;29;20181;-84
2023/03/12 06:53:37;;;;;;;5.40;4.10;;;6.30;93.10;;;;;;4914910;29;20435;-84
2023/03/12 06:56:03;;;;;;;4.97;4.47;;;6.40;93.40;;;;;;4911767;29;20939;-84
2023/03/12 06:58:28;;;;;;;6.07;4.33;;;6.40;93.70;;;;;;4905196;29;20430;-84
2023/03/12 07:00:55;;;;;;;7.27;5.23;;;6.40;93.80;;;;;;4902472;29;20505;-84
2023/03/12 07:03:21;;;;;;;4.63;4.20;;;6.40;94.20;;;;;;4915515;29;20408;-85
2023/03/12 07:05:48;;;;;;;4.57;4.13;;;6.40;93.90;;;;;;4915450;29;20502;-84
2023/03/12 07:08:15;;;;;;;4.23;3.80;;;6.10;94.50;;;;;;4915392;29;20428;-84
2023/03/12 07:10:41;;;;;;;6.00;5.25;;;6.00;95.80;;;;;;4915963;29;20775;-86
2023/03/12 07:13:07;;;;;;;4.80;4.30;;;5.90;97.30;;;;;;4914665;29;20187;-83
2023/03/12 07:15:33;;;;;;;5.88;4.07;;;6.10;97.20;;;;;;4916435;29;20394;-84
2023/03/12 07:18:00;;;;;;;8.03;4.03;;;6.20;96.90;;;;;;4908045;29;20219;-84
2023/03/12 07:20:26;;;;;;;4.70;4.30;;;6.20;97.10;;;;;;4910332;29;20425;-83
2023/03/12 07:22:52;;;;;;;5.77;4.30;;;6.00;98.10;;;;;;4912880;29;20448;-84
2023/03/12 07:25:17;;;;;;;5.53;4.90;;;5.70;99.80;;;;;;4915122;29;20183;-84
2023/03/12 07:27:43;;;;;;;4.30;4.00;;;5.70;99.90;;;;;;4916041;29;20194;-86
2023/03/12 07:30:09;;;;;;;4.60;4.20;;;5.70;99.90;;;;;;4915442;29;20205;-84
2023/03/12 07:32:35;;;;;;;4.90;4.60;;;5.50;99.90;;;;;;4915319;29;20175;-84
2023/03/12 07:35:02;;;;;;;4.60;4.20;;;5.60;99.90;;;;;;4915409;29;20186;-84
2023/03/12 07:37:28;;;;;;;4.97;4.47;;;5.70;99.90;;;;;;4916280;29;20273;-83
2023/03/12 07:39:54;;;;;;;5.53;4.77;;;5.90;99.90;;;;;;4914176;29;20183;-84
2023/03/12 07:42:20;;;;;;;6.80;6.20;;;6.00;99.90;;;;;;4913756;29;20195;-83
2023/03/12 07:44:46;;;;;;;5.40;5.00;;;6.00;99.90;;;;;;4912184;29;20230;-86
2023/03/12 07:47:12;;;;;;;6.13;4.60;;;6.00;99.90;;;;;;4912907;29;20435;-84
2023/03/12 07:49:40;;;;;;;8.27;5.40;;;6.20;99.90;;;;;;4913986;29;20492;-84
2023/03/12 07:52:08;;;;;;;5.50;5.10;;;6.20;99.90;;;;;;4904041;29;20278;-86
2023/03/12 07:54:35;;;;;;;6.50;6.00;;;6.50;99.90;;;;;;4914752;29;20784;-86
2023/03/12 07:57:00;;;;;;;5.80;5.40;;;7.20;99.90;;;;;;4913926;29;20502;-88
2023/03/12 07:59:26;;;;;;;6.27;5.63;;;7.90;99.90;;;;;;4899860;29;20441;-88
2023/03/12 08:01:52;;;;;;;5.57;5.13;;;8.40;99.90;;;;;;4917278;29;20502;-89
2023/03/12 08:04:18;;;;;;;5.67;5.27;;;8.90;99.90;;;;;;4917064;29;20191;-88
2023/03/12 08:06:44;;;;;;;7.50;6.80;;;9.50;99.90;;;;;;4915927;29;21025;-87
2023/03/12 08:09:10;;;;;;;8.10;7.40;;;9.80;99.90;;;;;;4917301;29;21024;-88
2023/03/12 08:11:36;;;;;;;5.20;4.37;;;10.20;99.90;;;;;;4918749;29;20620;-88
2023/03/12 08:14:05;;;;;;;12.80;6.27;;;10.30;99.90;;;;;;4915979;29;20460;-88
2023/03/12 08:16:31;;;;;;;6.63;6.03;;;10.50;99.90;;;;;;4918878;29;20472;-89
2023/03/12 08:18:57;;;;;;;5.50;5.20;;;10.80;99.90;;;;;;4916520;29;20494;-86
2023/03/12 08:21:22;;;;;;;6.03;5.30;;;11.20;99.90;;;;;;4917030;29;20473;-87
2023/03/12 08:23:48;;;;;;;5.87;5.40;;;11.40;99.70;;;;;;4914122;29;20214;-84
2023/03/12 08:26:14;;;;;;;5.93;5.30;;;11.50;98.10;;;;;;4918584;29;20191;-89
2023/03/12 08:28:40;;;;;;;6.60;6.07;;;11.60;95.70;;;;;;4918154;29;20655;-89
2023/03/12 08:31:06;;;;;;;5.40;5.00;;;11.80;98.20;;;;;;4917532;29;20323;-87
2023/03/12 08:33:32;;;;;;;5.47;5.00;;;12.10;97.30;;;;;;4918398;29;20194;-88
2023/03/12 08:35:58;;;;;;;6.10;4.87;;;12.20;96.70;;;;;;4915974;29;20426;-88
2023/03/12 08:38:23;;;;;;;6.17;5.47;;;12.30;93.50;;;;;;4917228;29;20431;-87
2023/03/12 08:40:57;;;;;;;5.00;4.50;;;12.20;92.90;;;;;;4919197;29;20174;-83
2023/03/12 08:43:24;;;;;;;5.47;5.00;;;12.10;93.80;;;;;;4918994;29;20225;-88
2023/03/12 08:45:58;;;;;;;5.60;5.13;;;12.30;93.60;;;;;;4916106;29;20798;-84
2023/03/12 08:48:24;;;;;;;5.63;5.13;;;12.30;92.50;;;;;;4918614;29;20401;-90
2023/03/12 08:50:50;;;;;;;5.30;5.00;;;12.40;92.70;;;;;;4916926;29;20434;-84
2023/03/12 08:53:19;;;;;;;6.50;5.97;;;12.50;92.50;;;;;;4914950;29;20472;-83
2023/03/12 08:55:44;;;;;;;6.90;5.40;;;12.70;90.60;;;;;;4910819;29;20183;-83
2023/03/12 08:58:10;;;;;;;6.90;6.20;;;12.40;89.70;;;;;;4914554;29;20987;-85
2023/03/12 09:00:36;;;;;;;5.33;4.93;;;11.60;90.60;;;;;;4932834;29;20242;-85
2023/03/12 09:03:02;;;;;;;7.27;5.30;;;11.20;91.70;;;;;;4917298;29;20177;-87
2023/03/12 09:05:28;;;;;;;5.07;4.57;;;10.80;93.10;;;;;;4917229;29;20650;-85
2023/03/12 09:07:56;;;;;;;5.43;4.93;;;10.50;94.00;;;;;;4915383;29;20282;-82
2023/03/12 09:10:22;;;;;;;5.57;5.10;;;10.20;95.30;;;;;;4917550;29;20429;-82
2023/03/12 09:12:47;;;;;;;5.73;5.30;;;9.60;97.60;;;;;;4917686;29;20888;-84
2023/03/12 09:15:13;;;;;;;5.43;5.03;;;9.20;99.50;;;;;;4915294;29;20434;-81
2023/03/12 09:17:39;;;;;;;6.07;5.67;;;9.10;99.90;;;;;;4916569;29;20694;-81
2023/03/12 09:20:07;;;;;;;5.47;5.17;;;8.70;99.90;;;;;;4917491;29;20445;-83
2023/03/12 09:22:35;;;;;;;5.57;5.07;;;8.60;99.90;;;;;;4931408;29;20447;-84
2023/03/12 09:25:03;;;;;;;5.90;5.30;;;8.60;99.90;;;;;;4917207;29;20519;-85
2023/03/12 09:27:28;;;;;;;5.90;5.47;;;8.60;99.90;;;;;;4916755;29;20437;-83
2023/03/12 09:29:54;;;;;;;6.17;5.70;;;8.60;99.90;;;;;;4915865;29;20480;-82
2023/03/12 09:32:20;;;;;;;5.27;4.87;;;8.40;99.90;;;;;;4899347;29;20446;-82
2023/03/12 09:34:46;;;;;;;5.07;4.70;;;8.40;99.90;;;;;;4916918;29;20265;-83
2023/03/12 09:37:12;;;;;;;5.17;4.70;;;8.40;99.90;;;;;;4914809;29;20215;-85
2023/03/12 09:39:37;;;;;;;4.90;4.60;;;8.40;99.90;;;;;;4915852;29;20635;-83
2023/03/12 09:42:05;;;;;;;4.70;4.40;;;8.40;99.90;;;;;;4914265;29;20493;-83
2023/03/12 09:44:43;;;;;;;4.70;4.40;;;8.40;99.90;;;;;;4915619;29;20470;-83
2023/03/12 09:47:19;;;;;;;4.60;4.40;;;8.40;99.90;;;;;;4916456;29;20414;-83
2023/03/12 09:49:50;;;;;;;4.63;4.23;;;8.40;99.90;;;;;;4916675;29;20462;-81
2023/03/12 09:52:26;;;;;;;4.30;4.00;;;8.40;99.90;;;;;;4917298;29;20558;-82
2023/03/12 09:55:15;;;;;;;4.30;4.10;;;8.30;99.90;;;;;;4912236;29;20438;-87
2023/03/12 09:57:43;;;;;;;4.40;4.10;;;8.30;99.90;;;;;;4904794;29;20582;-82
2023/03/12 10:00:15;;;;;;;5.10;4.70;;;8.30;99.90;;;;;;4916164;29;20479;-83
2023/03/12 10:03:05;;;;;;;4.30;4.10;;;8.30;99.90;;;;;;4918678;29;20891;-81
2023/03/12 10:05:54;;;;;;;4.17;3.97;;;8.30;99.90;;;;;;4922339;29;20396;-82
2023/03/12 10:08:33;;;;;;;4.00;3.80;;;8.30;99.90;;;;;;4916846;29;20411;-82
2023/03/12 10:10:59;;;;;;;4.40;4.00;;;8.30;99.90;;;;;;4914323;29;20431;-83
2023/03/12 10:13:32;;;;;;;4.00;3.70;;;8.30;99.90;;;;;;4916090;29;20426;-82
2023/03/12 10:16:11;;;;;;;4.80;4.50;;;8.30;99.90;;;;;;4899158;29;20217;-82
2023/03/12 10:18:46;;;;;;;3.87;3.67;;;8.40;99.90;;;;;;4916076;29;20477;-82
2023/03/12 10:21:23;;;;;;;4.60;4.30;;;8.40;99.90;;;;;;4915643;29;20685;-82
2023/03/12 10:24:05;;;;;;;4.30;3.93;;;8.50;99.90;;;;;;4914043;29;20437;-82
2023/03/12 10:26:34;;;;;;;4.10;3.90;;;8.60;99.90;;;;;;4911075;29;20447;-82
2023/03/12 10:29:09;;;;;;;4.47;4.10;;;8.60;99.90;;;;;;4897179;29;20438;-83
2023/03/12 10:31:42;;;;;;;4.17;3.97;;;8.60;99.90;;;;;;4912669;29;20426;-83
2023/03/12 10:34:49;;;;;;;163.87;98.70;;;8.70;99.90;;;;;;4907689;29;20418;-82
2023/03/12 10:37:21;;;;;;;117.10;67.80;;;8.80;99.90;;;;;;4904733;29;20480;-83
2023/03/12 10:39:47;;;;;;;7.13;6.47;;;8.80;99.90;;;;;;4914361;29;20445;-81
2023/03/12 10:42:22;;;;;;;3.73;3.53;;;8.80;99.90;;;;;;4914610;29;20435;-82
2023/03/12 10:44:52;;;;;;;3.60;3.50;;;8.70;99.90;;;;;;4913285;29;20510;-84
2023/03/12 10:47:27;;;;;;;3.53;3.40;;;8.60;99.90;;;;;;4911668;29;20434;-81
2023/03/12 10:49:53;;;;;;;3.90;3.60;;;8.70;99.90;;;;;;4900041;29;20544;-80
2023/03/12 10:52:21;;;;;;;3.10;3.00;;;8.60;99.90;;;;;;4901938;29;20419;-80
2023/03/12 10:54:50;;;;;;;3.57;3.37;;;8.70;99.90;;;;;;4920157;29;20585;-81
2023/03/12 10:57:16;;;;;;;3.77;3.57;;;8.70;99.90;;;;;;4920889;29;20458;-81
2023/03/12 10:59:46;;;;;;;3.13;2.93;;;8.70;99.90;;;;;;4919263;29;20415;-82
2023/03/12 11:02:31;;;;;;;3.40;3.20;;;8.70;99.90;;;;;;4902531;29;20755;-79
2023/03/12 11:04:58;;;;;;;3.50;3.40;;;8.70;99.90;;;;;;4919887;29;20823;-82
2023/03/12 11:07:27;;;;;;;3.40;3.20;;;8.80;99.90;;;;;;4905836;29;20991;-81
2023/03/12 11:10:05;;;;;;;3.20;3.10;;;8.90;99.90;;;;;;4920579;29;20446;-83
2023/03/12 11:12:34;;;;;;;3.00;2.80;;;8.80;99.90;;;;;;4895317;29;20546;-83
2023/03/12 11:15:26;;;;;;;2.83;2.73;;;8.80;99.90;;;;;;4893376;29;20908;-84
2023/03/12 11:18:17;;;;;;;2.90;2.80;;;8.90;99.90;;;;;;4893958;29;20492;-83
2023/03/12 11:20:43;;;;;;;4.10;3.80;;;9.00;99.90;;;;;;4894075;29;20419;-84
2023/03/12 11:23:27;;;;;;;3.60;3.40;;;8.90;99.90;;;;;;4895546;29;20874;-85
2023/03/12 11:26:16;;;;;;;3.30;3.20;;;9.00;99.90;;;;;;4903323;29;20178;-83
2023/03/12 11:28:54;;;;;;;186.83;100.63;;;9.00;99.90;;;;;;4912146;29;20464;-84
2023/03/12 11:31:32;;;;;;;10.40;9.00;;;9.00;99.90;;;;;;4926662;29;20827;-82
2023/03/12 11:34:05;;;;;;;4.10;4.00;;;9.00;99.90;;;;;;4945983;29;20404;-87
2023/03/12 11:36:38;;;;;;;3.90;3.60;;;9.10;99.90;;;;;;4924235;29;20473;-83
2023/03/12 11:39:11;;;;;;;3.97;3.77;;;9.10;99.90;;;;;;4918290;29;20411;-82
2023/03/12 11:41:58;;;;;;;4.43;4.17;;;9.10;99.90;;;;;;4919536;29;20403;-81
2023/03/12 11:44:49;;;;;;;4.20;3.90;;;9.20;99.90;;;;;;4916323;29;20470;-82
2023/03/12 11:47:28;;;;;;;4.33;3.93;;;9.20;99.90;;;;;;4918573;29;20478;-82
2023/03/12 11:50:34;;;;;;;4.30;4.10;;;9.30;99.90;;;;;;4918057;29;20447;-82
2023/03/12 11:53:03;;;;;;;3.97;3.77;;;9.40;99.90;;;;;;4907926;29;20402;-88
2023/03/12 11:55:48;;;;;;;4.90;4.70;;;9.40;99.90;;;;;;4910300;29;20436;-85
2023/03/12 11:58:33;;;;;;;4.50;4.30;;;9.50;99.90;;;;;;4908837;29;20472;-82
2023/03/12 12:01:38;;;;;;;4.17;3.97;;;9.50;99.90;;;;;;4910826;29;20493;-87
2023/03/12 12:04:34;;;;;;;4.13;3.93;;;9.50;99.90;;;;;;4910322;29;20443;-82
2023/03/12 12:07:18;;;;;;;3.23;3.13;;;9.50;99.90;;;;;;4907739;29;20427;-88
2023/03/12 12:09:49;;;;;;;2.83;2.63;;;9.60;99.90;;;;;;4907743;29;20506;-82
2023/03/12 12:12:45;;;;;;;3.07;2.87;;;9.60;99.90;;;;;;4892392;29;20443;-82
2023/03/12 12:15:17;;;;;;;2.70;2.60;;;9.70;99.90;;;;;;4911251;29;20461;-82
2023/03/12 12:18:04;;;;;;;3.20;3.10;;;9.80;99.90;;;;;;4912875;29;20448;-82
2023/03/12 12:20:51;;;;;;;4.70;4.30;;;9.80;99.90;;;;;;4910579;29;20416;-84
2023/03/12 12:23:35;;;;;;;3.30;3.10;;;9.80;99.90;;;;;;4908876;29;20414;-83
2023/03/12 12:26:08;;;;;;;4.03;3.73;;;9.90;99.90;;;;;;4911917;29;20409;-87
2023/03/12 12:28:53;;;;;;;3.10;3.00;;;9.90;99.90;;;;;;4906228;29;20414;-83
2023/03/12 12:31:53;;;;;;;3.47;3.27;;;9.90;99.90;;;;;;4910376;29;20411;-83
2023/03/12 12:34:40;;;;;;;3.60;3.40;;;10.00;99.90;;;;;;4906859;29;20415;-79
2023/03/12 12:37:45;;;;;;;3.30;3.10;;;10.00;99.90;;;;;;4907753;29;20527;-78
2023/03/12 12:40:21;;;;;;;3.80;3.60;;;10.10;99.90;;;;;;4914106;29;20431;-82
2023/03/12 12:43:03;;;;;;;3.90;3.70;;;10.10;99.90;;;;;;4910404;29;20461;-81
2023/03/12 12:45:29;;;;;;;4.10;3.80;;;10.10;99.90;;;;;;4907855;29;20420;-81
2023/03/12 12:48:00;;;;;;;3.90;3.60;;;10.20;99.90;;;;;;4908185;29;20969;-80
2023/03/12 12:50:30;;;;;;;4.50;4.20;;;10.30;99.90;;;;;;4890437;29;20473;-77
2023/03/12 12:53:13;;;;;;;4.57;4.17;;;10.40;99.90;;;;;;4906421;29;20500;-80
2023/03/12 12:56:11;;;;;;;4.63;4.43;;;10.30;99.90;;;;;;4907409;29;20439;-81
2023/03/12 12:58:58;;;;;;;6.17;5.47;;;10.40;99.90;;;;;;4901821;29;20852;-80
2023/03/12 13:01:25;;;;;;;5.70;5.30;;;10.30;99.90;;;;;;4907825;29;20462;-79
2023/03/12 13:03:56;;;;;;;6.40;5.70;;;10.30;99.90;;;;;;4910182;29;20420;-81
2023/03/12 13:06:28;;;;;;;5.80;5.40;;;10.40;99.90;;;;;;4907816;29;20430;-80
2023/03/12 13:09:00;;;;;;;5.70;5.20;;;10.40;99.90;;;;;;4910195;29;20403;-81